KAWO

Arlington Municipal Airport

Arlington, Washington, USA
METAR KAWO 232056Z AUTO 13014KT 10SM UP FEW013 SCT047 OVC080 M01/M03 A3036 RMK AO2 PK WND 15027/2008 RAB1957E11UPB53SNB11E53 SLP287 P0000 60000 T10061033 58023 FZRANO
Observed Flight Rules
Feb-23 @ 20:56 UTC (2 hours ago) Visual Flight Rules
Wind Visibility Clouds Conditions
130° at 14 knots 10 miles
  • Few at 1,300' AGL
  • Scattered at 4,700' AGL
  • Overcast at 8,000' AGL
  • Unknown precipitation
Temperatures Readings Precipitation
Current -1°C / 30°F
Dewpoint -3°C / 27°F
Humidity 86%
Altimeter 30.36" Hg
Pressure 1028.7 hPa
Elevation 42
Current Rain 0.005
METAR KAWO 232056Z AUTO 13014KT 10SM UP FEW013 SCT047 OVC080 M01/M03 A3036 RMK AO2 PK WND 15027/2008 RAB1957E11UPB53SNB11E53 SLP287 P0000 60000 T10061033 58023 FZRANO
Observed Flight Rules
Feb-23 @ 20:56 UTC
(2 hours ago)
VFR
Wind Visibility
130° at 14 knots 10 miles
Clouds
  • Few at 1,300' AGL
  • Scattered at 4,700' AGL
  • Overcast at 8,000' AGL
Conditions
  • Unknown precipitation
Temperature Dewpoint
-1°C / 30°F -3°C / 27°F
Humidity Altimeter Pressure
86% 30.36" Hg 1028.7 hPa
Current Rain
0.005